sensor_id;sensor_type;location;lat;lon;timestamp;temperature;humidity
13496;DHT22;6820;49.374;8.452;2022-09-20T00:02:16;12.37;99.99
13496;DHT22;6820;49.374;8.452;2022-09-20T00:06:22;12.40;99.99
13496;DHT22;6820;49.374;8.452;2022-09-20T00:10:25;12.34;99.99
13496;DHT22;6820;49.374;8.452;2022-09-20T00:14:27;12.33;99.99
13496;DHT22;6820;49.374;8.452;2022-09-20T00:18:29;12.30;99.99
13496;DHT22;6820;49.374;8.452;2022-09-20T00:22:30;12.26;99.99
13496;DHT22;6820;49.374;8.452;2022-09-20T00:26:32;12.25;99.99
13496;DHT22;6820;49.374;8.452;2022-09-20T00:30:33;12.23;99.99
13496;DHT22;6820;49.374;8.452;2022-09-20T00:34:35;12.23;99.99
13496;DHT22;6820;49.374;8.452;2022-09-20T00:38:56;12.15;99.99
13496;DHT22;6820;49.374;8.452;2022-09-20T00:42:59;12.16;99.99
13496;DHT22;6820;49.374;8.452;2022-09-20T00:47:00;12.16;99.99
13496;DHT22;6820;49.374;8.452;2022-09-20T00:51:05;12.13;99.99
13496;DHT22;6820;49.374;8.452;2022-09-20T00:55:10;12.12;99.99
13496;DHT22;6820;49.374;8.452;2022-09-20T00:59:16;12.08;99.99
13496;DHT22;6820;49.374;8.452;2022-09-20T01:03:31;12.04;99.99
13496;DHT22;6820;49.374;8.452;2022-09-20T01:07:36;12.04;99.99
13496;DHT22;6820;49.374;8.452;2022-09-20T01:11:38;12.04;99.99
13496;DHT22;6820;49.374;8.452;2022-09-20T01:15:41;12.07;99.99
13496;DHT22;6820;49.374;8.452;2022-09-20T01:28:27;12.15;99.99
13496;DHT22;6820;49.374;8.452;2022-09-20T01:37:23;12.19;99.99
13496;DHT22;6820;49.374;8.452;2022-09-20T01:41:35;12.22;99.99
13496;DHT22;6820;49.374;8.452;2022-09-20T01:45:45;12.23;99.99
13496;DHT22;6820;49.374;8.452;2022-09-20T01:58:32;12.22;99.99
13496;DHT22;6820;49.374;8.452;2022-09-20T02:07:36;12.25;99.99
13496;DHT22;6820;49.374;8.452;2022-09-20T02:29:02;12.29;99.99
13496;DHT22;6820;49.374;8.452;2022-09-20T02:33:22;12.30;99.99
13496;DHT22;6820;49.374;8.452;2022-09-20T02:37:40;12.29;99.99
13496;DHT22;6820;49.374;8.452;2022-09-20T02:50:44;12.26;99.99
13496;DHT22;6820;49.374;8.452;2022-09-20T02:54:56;12.23;99.99
13496;DHT22;6820;49.374;8.452;2022-09-20T02:59:07;12.23;99.99
13496;DHT22;6820;49.374;8.452;2022-09-20T03:08:13;12.21;99.99
13496;DHT22;6820;49.374;8.452;2022-09-20T03:16:50;12.19;99.99
13496;DHT22;6820;49.374;8.452;2022-09-20T03:42:42;12.13;99.99
13496;DHT22;6820;49.374;8.452;2022-09-20T03:46:48;12.16;99.99
13496;DHT22;6820;49.374;8.452;2022-09-20T03:51:12;12.16;99.99
13496;DHT22;6820;49.374;8.452;2022-09-20T04:00:01;12.16;99.99
13496;DHT22;6820;49.374;8.452;2022-09-20T04:08:38;12.12;99.99
13496;DHT22;6820;49.374;8.452;2022-09-20T04:12:54;12.01;99.99
13496;DHT22;6820;49.374;8.452;2022-09-20T04:21:34;11.85;99.99
13496;DHT22;6820;49.374;8.452;2022-09-20T04:25:43;11.78;99.99
13496;DHT22;6820;49.374;8.452;2022-09-20T04:29:52;11.67;99.99
13496;DHT22;6820;49.374;8.452;2022-09-20T04:34:00;11.62;99.99
13496;DHT22;6820;49.374;8.452;2022-09-20T04:38:07;11.56;99.99
13496;DHT22;6820;49.374;8.452;2022-09-20T04:46:44;11.46;99.99
13496;DHT22;6820;49.374;8.452;2022-09-20T05:30:17;11.03;99.99
13496;DHT22;6820;49.374;8.452;2022-09-20T05:34:41;11.09;99.99
13496;DHT22;6820;49.374;8.452;2022-09-20T05:38:49;11.13;99.99
13496;DHT22;6820;49.374;8.452;2022-09-20T05:43:08;11.19;99.99
13496;DHT22;6820;49.374;8.452;2022-09-20T05:47:16;11.26;99.99
13496;DHT22;6820;49.374;8.452;2022-09-20T06:00:15;11.46;99.99
13496;DHT22;6820;49.374;8.452;2022-09-20T06:04:21;11.60;99.99
13496;DHT22;6820;49.374;8.452;2022-09-20T06:08:29;11.75;99.99
13496;DHT22;6820;49.374;8.452;2022-09-20T06:21:24;12.11;99.99
13496;DHT22;6820;49.374;8.452;2022-09-20T06:25:45;12.19;99.99
13496;DHT22;6820;49.374;8.452;2022-09-20T06:30:04;12.31;99.99
13496;DHT22;6820;49.374;8.452;2022-09-20T06:34:13;12.38;99.99
13496;DHT22;6820;49.374;8.452;2022-09-20T06:38:35;12.46;99.99
13496;DHT22;6820;49.374;8.452;2022-09-20T06:43:17;12.54;99.99
13496;DHT22;6820;49.374;8.452;2022-09-20T06:47:19;12.66;99.99
13496;DHT22;6820;49.374;8.452;2022-09-20T06:51:24;12.76;99.99
13496;DHT22;6820;49.374;8.452;2022-09-20T06:55:28;12.91;99.99
13496;DHT22;6820;49.374;8.452;2022-09-20T06:59:32;12.94;99.99
13496;DHT22;6820;49.374;8.452;2022-09-20T07:03:33;13.01;99.99
13496;DHT22;6820;49.374;8.452;2022-09-20T07:07:35;13.04;99.99
13496;DHT22;6820;49.374;8.452;2022-09-20T07:11:36;13.13;99.99
13496;DHT22;6820;49.374;8.452;2022-09-20T07:15:38;13.22;99.99
13496;DHT22;6820;49.374;8.452;2022-09-20T07:19:40;13.27;99.99
13496;DHT22;6820;49.374;8.452;2022-09-20T07:23:41;13.36;99.99
13496;DHT22;6820;49.374;8.452;2022-09-20T07:27:47;13.43;99.99
13496;DHT22;6820;49.374;8.452;2022-09-20T07:31:50;13.46;99.99
13496;DHT22;6820;49.374;8.452;2022-09-20T07:35:52;13.46;99.99
13496;DHT22;6820;49.374;8.452;2022-09-20T07:39:54;13.55;99.99
13496;DHT22;6820;49.374;8.452;2022-09-20T07:43:56;13.65;99.99
13496;DHT22;6820;49.374;8.452;2022-09-20T07:48:18;13.71;99.99
13496;DHT22;6820;49.374;8.452;2022-09-20T07:52:19;13.75;99.99
13496;DHT22;6820;49.374;8.452;2022-09-20T07:56:21;13.68;99.99
13496;DHT22;6820;49.374;8.452;2022-09-20T08:00:22;13.48;99.99
13496;DHT22;6820;49.374;8.452;2022-09-20T08:04:24;13.39;99.99
13496;DHT22;6820;49.374;8.452;2022-09-20T08:08:25;13.48;99.99
13496;DHT22;6820;49.374;8.452;2022-09-20T08:12:29;13.47;99.99
13496;DHT22;6820;49.374;8.452;2022-09-20T08:16:50;13.53;99.99
13496;DHT22;6820;49.374;8.452;2022-09-20T08:20:52;13.63;99.99
13496;DHT22;6820;49.374;8.452;2022-09-20T08:24:55;13.87;99.99
13496;DHT22;6820;49.374;8.452;2022-09-20T08:28:57;14.05;99.99
13496;DHT22;6820;49.374;8.452;2022-09-20T08:33:02;14.11;99.99
13496;DHT22;6820;49.374;8.452;2022-09-20T08:37:04;14.16;99.99
13496;DHT22;6820;49.374;8.452;2022-09-20T08:45:14;14.26;99.99
13496;DHT22;6820;49.374;8.452;2022-09-20T08:49:34;14.34;99.99
13496;DHT22;6820;49.374;8.452;2022-09-20T08:53:39;14.39;99.99
13496;DHT22;6820;49.374;8.452;2022-09-20T08:57:50;14.52;99.99
13496;DHT22;6820;49.374;8.452;2022-09-20T09:01:54;14.64;99.99
13496;DHT22;6820;49.374;8.452;2022-09-20T09:05:55;14.69;99.99
13496;DHT22;6820;49.374;8.452;2022-09-20T09:09:58;14.74;99.99
13496;DHT22;6820;49.374;8.452;2022-09-20T09:18:04;15.00;99.99
13496;DHT22;6820;49.374;8.452;2022-09-20T09:22:16;15.18;99.99
13496;DHT22;6820;49.374;8.452;2022-09-20T09:26:36;15.38;99.99
13496;DHT22;6820;49.374;8.452;2022-09-20T09:30:40;15.48;99.99
13496;DHT22;6820;49.374;8.452;2022-09-20T09:34:44;15.41;99.99
13496;DHT22;6820;49.374;8.452;2022-09-20T09:38:45;15.41;99.99
13496;DHT22;6820;49.374;8.452;2022-09-20T09:42:48;15.43;99.99
13496;DHT22;6820;49.374;8.452;2022-09-20T09:46:57;15.51;99.99
13496;DHT22;6820;49.374;8.452;2022-09-20T09:51:06;15.60;99.99
13496;DHT22;6820;49.374;8.452;2022-09-20T09:55:12;15.76;99.99
13496;DHT22;6820;49.374;8.452;2022-09-20T10:04:30;15.80;99.99
13496;DHT22;6820;49.374;8.452;2022-09-20T10:12:31;15.64;99.99
13496;DHT22;6820;49.374;8.452;2022-09-20T10:21:10;15.40;99.99
13496;DHT22;6820;49.374;8.452;2022-09-20T10:38:33;16.40;99.99
13496;DHT22;6820;49.374;8.452;2022-09-20T10:43:05;16.66;99.99
13496;DHT22;6820;49.374;8.452;2022-09-20T10:47:18;16.91;99.99
13496;DHT22;6820;49.374;8.452;2022-09-20T10:51:32;17.02;99.99
13496;DHT22;6820;49.374;8.452;2022-09-20T11:04:44;16.78;99.99
13496;DHT22;6820;49.374;8.452;2022-09-20T11:08:49;16.81;99.99
13496;DHT22;6820;49.374;8.452;2022-09-20T11:12:57;16.98;99.99
13496;DHT22;6820;49.374;8.452;2022-09-20T11:21:30;16.66;99.99
13496;DHT22;6820;49.374;8.452;2022-09-20T11:25:46;16.77;99.99
13496;DHT22;6820;49.374;8.452;2022-09-20T11:29:57;16.77;99.99
13496;DHT22;6820;49.374;8.452;2022-09-20T11:34:14;16.67;99.99
13496;DHT22;6820;49.374;8.452;2022-09-20T11:38:36;16.87;99.99
13496;DHT22;6820;49.374;8.452;2022-09-20T11:42:44;17.21;99.99
13496;DHT22;6820;49.374;8.452;2022-09-20T11:47:08;17.62;99.99
13496;DHT22;6820;49.374;8.452;2022-09-20T11:52:03;18.10;99.99
13496;DHT22;6820;49.374;8.452;2022-09-20T11:56:20;18.16;99.99
13496;DHT22;6820;49.374;8.452;2022-09-20T12:00:27;18.31;99.99
13496;DHT22;6820;49.374;8.452;2022-09-20T12:04:32;18.17;99.99
13496;DHT22;6820;49.374;8.452;2022-09-20T12:08:37;18.21;99.99
13496;DHT22;6820;49.374;8.452;2022-09-20T12:12:48;18.41;99.99
13496;DHT22;6820;49.374;8.452;2022-09-20T12:16:55;18.66;99.99
13496;DHT22;6820;49.374;8.452;2022-09-20T12:20:58;18.57;99.99
13496;DHT22;6820;49.374;8.452;2022-09-20T12:38:31;18.17;99.99
13496;DHT22;6820;49.374;8.452;2022-09-20T12:42:34;18.02;99.99
13496;DHT22;6820;49.374;8.452;2022-09-20T12:46:40;18.01;99.99
13496;DHT22;6820;49.374;8.452;2022-09-20T12:55:52;18.56;99.99
13496;DHT22;6820;49.374;8.452;2022-09-20T12:59:55;18.90;99.99
13496;DHT22;6820;49.374;8.452;2022-09-20T13:13:10;19.32;99.99
13496;DHT22;6820;49.374;8.452;2022-09-20T13:17:26;19.06;99.61
13496;DHT22;6820;49.374;8.452;2022-09-20T13:21:33;19.23;96.94
13496;DHT22;6820;49.374;8.452;2022-09-20T13:25:38;19.23;98.10
13496;DHT22;6820;49.374;8.452;2022-09-20T13:29:40;19.35;96.80
13496;DHT22;6820;49.374;8.452;2022-09-20T13:33:43;19.46;95.99
13496;DHT22;6820;49.374;8.452;2022-09-20T13:41:57;19.10;97.05
13496;DHT22;6820;49.374;8.452;2022-09-20T13:46:06;18.59;98.25
13496;DHT22;6820;49.374;8.452;2022-09-20T13:58:32;18.47;98.19
13496;DHT22;6820;49.374;8.452;2022-09-20T14:02:35;18.36;99.80
13496;DHT22;6820;49.374;8.452;2022-09-20T14:06:39;18.34;99.99
13496;DHT22;6820;49.374;8.452;2022-09-20T14:10:42;18.17;99.60
13496;DHT22;6820;49.374;8.452;2022-09-20T14:14:45;18.10;99.99
13496;DHT22;6820;49.374;8.452;2022-09-20T14:18:47;18.01;99.99
13496;DHT22;6820;49.374;8.452;2022-09-20T14:22:49;17.99;99.99
13496;DHT22;6820;49.374;8.452;2022-09-20T14:31:26;18.01;99.99
13496;DHT22;6820;49.374;8.452;2022-09-20T14:35:31;17.99;99.99
13496;DHT22;6820;49.374;8.452;2022-09-20T14:39:33;17.99;99.99
13496;DHT22;6820;49.374;8.452;2022-09-20T14:43:44;18.04;99.99
13496;DHT22;6820;49.374;8.452;2022-09-20T14:47:53;17.99;99.99
13496;DHT22;6820;49.374;8.452;2022-09-20T14:56:34;17.73;99.99
13496;DHT22;6820;49.374;8.452;2022-09-20T15:04:56;17.43;99.99
13496;DHT22;6820;49.374;8.452;2022-09-20T15:09:01;17.43;99.99
13496;DHT22;6820;49.374;8.452;2022-09-20T15:13:02;17.46;99.99
13496;DHT22;6820;49.374;8.452;2022-09-20T15:17:04;17.47;99.99
13496;DHT22;6820;49.374;8.452;2022-09-20T15:21:06;17.43;99.99
13496;DHT22;6820;49.374;8.452;2022-09-20T15:25:11;17.43;99.99
13496;DHT22;6820;49.374;8.452;2022-09-20T15:29:15;17.51;99.99
13496;DHT22;6820;49.374;8.452;2022-09-20T15:33:20;17.46;99.99
13496;DHT22;6820;49.374;8.452;2022-09-20T15:37:22;17.30;99.99
13496;DHT22;6820;49.374;8.452;2022-09-20T15:41:23;17.25;99.99
13496;DHT22;6820;49.374;8.452;2022-09-20T15:45:31;17.17;99.99
13496;DHT22;6820;49.374;8.452;2022-09-20T15:49:32;17.09;99.99
13496;DHT22;6820;49.374;8.452;2022-09-20T15:53:35;17.07;99.99
13496;DHT22;6820;49.374;8.452;2022-09-20T15:57:38;17.05;99.99
13496;DHT22;6820;49.374;8.452;2022-09-20T16:01:42;16.92;99.99
13496;DHT22;6820;49.374;8.452;2022-09-20T16:05:55;16.87;99.99
13496;DHT22;6820;49.374;8.452;2022-09-20T16:10:04;16.87;99.99
13496;DHT22;6820;49.374;8.452;2022-09-20T16:14:06;16.88;99.99
13496;DHT22;6820;49.374;8.452;2022-09-20T16:18:08;16.84;99.99
13496;DHT22;6820;49.374;8.452;2022-09-20T16:22:28;16.78;99.99
13496;DHT22;6820;49.374;8.452;2022-09-20T16:26:34;16.75;99.99
13496;DHT22;6820;49.374;8.452;2022-09-20T16:30:36;16.67;99.99
13496;DHT22;6820;49.374;8.452;2022-09-20T16:34:37;16.54;99.99
13496;DHT22;6820;49.374;8.452;2022-09-20T16:38:39;16.47;99.99
13496;DHT22;6820;49.374;8.452;2022-09-20T16:42:44;16.44;99.99
13496;DHT22;6820;49.374;8.452;2022-09-20T16:46:52;16.41;99.99
13496;DHT22;6820;49.374;8.452;2022-09-20T16:50:54;16.32;99.99
13496;DHT22;6820;49.374;8.452;2022-09-20T16:54:55;16.30;99.99
13496;DHT22;6820;49.374;8.452;2022-09-20T16:58:57;16.27;99.99
13496;DHT22;6820;49.374;8.452;2022-09-20T17:02:58;16.22;99.99
13496;DHT22;6820;49.374;8.452;2022-09-20T17:07:00;16.16;99.99
13496;DHT22;6820;49.374;8.452;2022-09-20T17:11:02;16.13;99.99
13496;DHT22;6820;49.374;8.452;2022-09-20T17:15:04;16.13;99.99
13496;DHT22;6820;49.374;8.452;2022-09-20T17:19:10;16.07;99.99
13496;DHT22;6820;49.374;8.452;2022-09-20T17:23:13;16.04;99.99
13496;DHT22;6820;49.374;8.452;2022-09-20T17:27:15;15.99;99.99
13496;DHT22;6820;49.374;8.452;2022-09-20T17:31:17;15.93;99.99
13496;DHT22;6820;49.374;8.452;2022-09-20T17:35:21;15.85;99.99
13496;DHT22;6820;49.374;8.452;2022-09-20T17:39:22;15.77;99.99
13496;DHT22;6820;49.374;8.452;2022-09-20T17:43:24;15.68;99.99
13496;DHT22;6820;49.374;8.452;2022-09-20T17:47:27;15.60;99.99
13496;DHT22;6820;49.374;8.452;2022-09-20T17:51:29;15.53;99.99
13496;DHT22;6820;49.374;8.452;2022-09-20T17:55:32;15.48;99.99
13496;DHT22;6820;49.374;8.452;2022-09-20T17:59:34;15.40;99.99
13496;DHT22;6820;49.374;8.452;2022-09-20T18:03:37;15.35;99.99
13496;DHT22;6820;49.374;8.452;2022-09-20T18:07:39;15.28;99.99
13496;DHT22;6820;49.374;8.452;2022-09-20T18:11:42;15.23;99.99
13496;DHT22;6820;49.374;8.452;2022-09-20T18:15:46;15.19;99.99
13496;DHT22;6820;49.374;8.452;2022-09-20T18:19:48;15.15;99.99
13496;DHT22;6820;49.374;8.452;2022-09-20T18:23:50;15.11;99.99
13496;DHT22;6820;49.374;8.452;2022-09-20T18:27:52;15.05;99.99
13496;DHT22;6820;49.374;8.452;2022-09-20T18:31:54;15.01;99.99
13496;DHT22;6820;49.374;8.452;2022-09-20T18:36:00;15.00;99.99
13496;DHT22;6820;49.374;8.452;2022-09-20T18:40:03;14.94;99.99
13496;DHT22;6820;49.374;8.452;2022-09-20T18:44:05;14.91;99.99
13496;DHT22;6820;49.374;8.452;2022-09-20T18:48:08;14.90;99.99
13496;DHT22;6820;49.374;8.452;2022-09-20T18:52:09;14.80;99.99
13496;DHT22;6820;49.374;8.452;2022-09-20T19:00:23;14.71;99.99
13496;DHT22;6820;49.374;8.452;2022-09-20T19:08:44;14.66;99.99
13496;DHT22;6820;49.374;8.452;2022-09-20T19:13:21;14.63;99.99
13496;DHT22;6820;49.374;8.452;2022-09-20T19:30:21;14.49;99.99
13496;DHT22;6820;49.374;8.452;2022-09-20T19:34:25;14.45;99.99
13496;DHT22;6820;49.374;8.452;2022-09-20T19:47:28;14.36;99.99
13496;DHT22;6820;49.374;8.452;2022-09-20T19:51:35;14.30;99.99
13496;DHT22;6820;49.374;8.452;2022-09-20T19:55:38;14.23;99.99
13496;DHT22;6820;49.374;8.452;2022-09-20T19:59:40;14.19;99.99
13496;DHT22;6820;49.374;8.452;2022-09-20T20:03:43;14.13;99.99
13496;DHT22;6820;49.374;8.452;2022-09-20T20:12:20;14.05;99.99
13496;DHT22;6820;49.374;8.452;2022-09-20T20:16:31;14.04;99.99
13496;DHT22;6820;49.374;8.452;2022-09-20T20:20:38;13.99;99.99
13496;DHT22;6820;49.374;8.452;2022-09-20T20:24:48;13.93;99.99
13496;DHT22;6820;49.374;8.452;2022-09-20T20:28:52;13.90;99.99
13496;DHT22;6820;49.374;8.452;2022-09-20T20:32:56;13.87;99.99
13496;DHT22;6820;49.374;8.452;2022-09-20T20:36:58;13.83;99.99
13496;DHT22;6820;49.374;8.452;2022-09-20T20:41:04;13.79;99.99
13496;DHT22;6820;49.374;8.452;2022-09-20T20:45:06;13.75;99.99
13496;DHT22;6820;49.374;8.452;2022-09-20T20:49:10;13.72;99.99
13496;DHT22;6820;49.374;8.452;2022-09-20T20:53:12;13.68;99.99
13496;DHT22;6820;49.374;8.452;2022-09-20T20:57:13;13.68;99.99
13496;DHT22;6820;49.374;8.452;2022-09-20T21:01:37;13.68;99.99
13496;DHT22;6820;49.374;8.452;2022-09-20T21:05:51;13.66;99.99
13496;DHT22;6820;49.374;8.452;2022-09-20T21:09:54;13.65;99.99
13496;DHT22;6820;49.374;8.452;2022-09-20T21:13:56;13.63;99.99
13496;DHT22;6820;49.374;8.452;2022-09-20T21:17:58;13.66;99.99
13496;DHT22;6820;49.374;8.452;2022-09-20T21:22:00;13.68;99.99
13496;DHT22;6820;49.374;8.452;2022-09-20T21:26:05;13.68;99.99
13496;DHT22;6820;49.374;8.452;2022-09-20T21:30:09;13.66;99.99
13496;DHT22;6820;49.374;8.452;2022-09-20T21:34:13;13.68;99.99
13496;DHT22;6820;49.374;8.452;2022-09-20T21:38:15;13.66;99.99
13496;DHT22;6820;49.374;8.452;2022-09-20T21:42:17;13.63;99.99
13496;DHT22;6820;49.374;8.452;2022-09-20T21:50:50;13.63;99.99
13496;DHT22;6820;49.374;8.452;2022-09-20T21:54:52;13.57;99.99
13496;DHT22;6820;49.374;8.452;2022-09-20T21:58:53;13.51;99.99
13496;DHT22;6820;49.374;8.452;2022-09-20T22:02:55;13.48;99.99
13496;DHT22;6820;49.374;8.452;2022-09-20T22:06:59;13.43;99.99
13496;DHT22;6820;49.374;8.452;2022-09-20T22:11:04;13.35;99.99
13496;DHT22;6820;49.374;8.452;2022-09-20T22:15:06;13.29;99.99
13496;DHT22;6820;49.374;8.452;2022-09-20T22:19:09;13.27;99.99
13496;DHT22;6820;49.374;8.452;2022-09-20T22:23:12;13.25;99.99
13496;DHT22;6820;49.374;8.452;2022-09-20T22:27:14;13.19;99.99
13496;DHT22;6820;49.374;8.452;2022-09-20T22:31:16;13.14;99.99
13496;DHT22;6820;49.374;8.452;2022-09-20T22:35:19;13.12;99.99
13496;DHT22;6820;49.374;8.452;2022-09-20T22:39:21;13.09;99.99
13496;DHT22;6820;49.374;8.452;2022-09-20T22:43:23;13.07;99.99
13496;DHT22;6820;49.374;8.452;2022-09-20T22:47:25;13.01;99.99
13496;DHT22;6820;49.374;8.452;2022-09-20T22:51:27;12.96;99.99
13496;DHT22;6820;49.374;8.452;2022-09-20T22:55:31;12.91;99.99
13496;DHT22;6820;49.374;8.452;2022-09-20T22:59:33;12.84;99.99
13496;DHT22;6820;49.374;8.452;2022-09-20T23:03:34;12.76;99.99
13496;DHT22;6820;49.374;8.452;2022-09-20T23:07:37;12.69;99.99
13496;DHT22;6820;49.374;8.452;2022-09-20T23:11:38;12.61;99.99
13496;DHT22;6820;49.374;8.452;2022-09-20T23:15:42;12.58;99.99
13496;DHT22;6820;49.374;8.452;2022-09-20T23:19:43;12.54;99.99
13496;DHT22;6820;49.374;8.452;2022-09-20T23:23:45;12.44;99.99
13496;DHT22;6820;49.374;8.452;2022-09-20T23:27:47;12.37;99.99
13496;DHT22;6820;49.374;8.452;2022-09-20T23:31:49;12.31;99.99
13496;DHT22;6820;49.374;8.452;2022-09-20T23:35:50;12.29;99.99
13496;DHT22;6820;49.374;8.452;2022-09-20T23:39:52;12.26;99.99
13496;DHT22;6820;49.374;8.452;2022-09-20T23:43:54;12.16;99.99
13496;DHT22;6820;49.374;8.452;2022-09-20T23:47:55;12.03;99.99
13496;DHT22;6820;49.374;8.452;2022-09-20T23:51:57;12.01;99.99
13496;DHT22;6820;49.374;8.452;2022-09-20T23:55:58;12.05;99.99
